createdAt,value
2023-12-08T00:02:01.238Z,95.95
2023-12-08T00:04:27.699Z,95.85
2023-12-08T00:06:54.159Z,96.05
2023-12-08T00:09:20.580Z,95.50
2023-12-08T00:11:47.011Z,95.19
2023-12-08T00:14:13.496Z,94.88
2023-12-08T00:16:39.985Z,94.96
2023-12-08T00:19:07.493Z,95.12
2023-12-08T00:21:34.365Z,95.30
2023-12-08T00:24:00.827Z,95.29
2023-12-08T00:26:27.245Z,95.54
2023-12-08T00:28:53.641Z,95.53
2023-12-08T00:31:21.067Z,95.62
2023-12-08T00:33:47.548Z,95.29
2023-12-08T00:36:16.984Z,95.80
2023-12-08T00:38:45.707Z,95.52
2023-12-08T00:41:12.256Z,95.55
2023-12-08T00:43:38.711Z,95.23
2023-12-08T00:46:05.486Z,95.31
2023-12-08T00:48:32.049Z,95.55
2023-12-08T00:50:58.585Z,95.83
2023-12-08T00:53:25.067Z,96.00
2023-12-08T00:55:51.478Z,96.15
2023-12-08T00:58:18.022Z,95.57
2023-12-08T01:00:45.617Z,95.88
2023-12-08T01:03:13.051Z,95.86
2023-12-08T01:05:39.728Z,96.25
2023-12-08T01:08:06.582Z,96.19
2023-12-08T01:10:33.155Z,96.16
2023-12-08T01:12:59.796Z,95.78
2023-12-08T01:15:26.200Z,95.79
2023-12-08T01:17:52.698Z,95.68
2023-12-08T01:20:19.299Z,95.59
2023-12-08T01:22:45.820Z,95.77
2023-12-08T01:25:12.435Z,95.29
2023-12-08T01:27:38.874Z,94.86
2023-12-08T01:30:06.388Z,94.72
2023-12-08T01:32:33.094Z,94.61
2023-12-08T01:34:59.527Z,94.68
2023-12-08T01:37:26.120Z,94.81
2023-12-08T01:39:52.736Z,94.67
2023-12-08T01:42:19.261Z,94.46
2023-12-08T01:44:45.688Z,94.44
2023-12-08T01:47:13.356Z,94.42
2023-12-08T01:49:40.842Z,94.75
2023-12-08T01:52:08.683Z,94.49
2023-12-08T01:54:35.433Z,94.37
2023-12-08T01:57:03.410Z,94.61
2023-12-08T01:59:31.534Z,94.19
2023-12-08T02:01:59.149Z,93.98
2023-12-08T02:04:26.629Z,93.83
2023-12-08T02:06:53.785Z,93.88
2023-12-08T02:09:21.209Z,93.69
2023-12-08T02:11:47.847Z,93.85
2023-12-08T02:14:16.534Z,93.96
2023-12-08T02:16:50.079Z,93.45
2023-12-08T02:19:18.341Z,93.04
2023-12-08T02:21:45.423Z,93.24
2023-12-08T02:24:12.017Z,93.13
2023-12-08T02:26:38.983Z,93.08
2023-12-08T02:29:09.690Z,93.28
2023-12-08T02:31:42.145Z,92.91
2023-12-08T02:34:11.087Z,92.62
2023-12-08T02:36:39.321Z,92.62
2023-12-08T02:39:07.860Z,92.41
2023-12-08T02:41:34.376Z,92.93
2023-12-08T02:44:00.978Z,92.59
2023-12-08T02:46:27.409Z,93.07
2023-12-08T02:48:55.079Z,92.21
2023-12-08T02:51:22.187Z,92.20
2023-12-08T02:53:48.687Z,91.82
2023-12-08T02:56:15.064Z,92.50
2023-12-08T02:58:41.455Z,92.07
2023-12-08T03:01:07.880Z,92.32
2023-12-08T03:03:34.381Z,91.97
2023-12-08T03:06:00.852Z,91.63
2023-12-08T03:08:27.234Z,92.02
2023-12-08T03:10:53.641Z,91.68
2023-12-08T03:13:20.964Z,91.49
2023-12-08T03:15:47.346Z,91.89
2023-12-08T03:18:13.877Z,91.66
2023-12-08T03:20:40.355Z,91.62
2023-12-08T03:23:06.943Z,91.54
2023-12-08T03:25:33.328Z,91.46
2023-12-08T03:27:59.754Z,91.29
2023-12-08T03:30:27.203Z,91.06
2023-12-08T03:32:53.686Z,90.81
2023-12-08T03:35:21.590Z,90.20
2023-12-08T03:37:47.980Z,89.70
2023-12-08T03:40:14.513Z,89.52
2023-12-08T03:42:40.947Z,89.56
2023-12-08T03:45:07.630Z,89.68
2023-12-08T03:47:34.455Z,88.39
2023-12-08T03:50:01.185Z,89.12
2023-12-08T03:52:27.572Z,88.51
2023-12-08T03:54:53.968Z,88.80
2023-12-08T03:57:21.172Z,88.15
2023-12-08T03:59:47.763Z,88.48
2023-12-08T04:02:14.219Z,87.54
2023-12-08T04:04:42.532Z,88.32
2023-12-08T04:07:08.923Z,88.32
2023-12-08T04:09:35.364Z,88.34
2023-12-08T04:12:01.787Z,88.01
2023-12-08T04:14:28.198Z,88.00
2023-12-08T04:16:54.588Z,87.37
2023-12-08T04:19:21.331Z,87.28
2023-12-08T04:21:48.001Z,87.22
2023-12-08T04:24:14.497Z,87.39
2023-12-08T04:26:45.151Z,86.94
2023-12-08T04:29:11.570Z,87.42
2023-12-08T04:31:38.035Z,87.39
2023-12-08T04:34:04.822Z,87.50
2023-12-08T04:36:31.376Z,87.09
2023-12-08T04:38:58.328Z,88.48
2023-12-08T04:41:24.726Z,88.12
2023-12-08T04:43:51.128Z,87.48
2023-12-08T04:46:19.057Z,87.50
2023-12-08T04:48:45.666Z,86.94
2023-12-08T04:51:12.233Z,87.69
2023-12-08T04:53:38.683Z,86.71
2023-12-08T04:56:05.597Z,86.77
2023-12-08T04:58:32.035Z,86.86
2023-12-08T05:00:58.500Z,86.97
2023-12-08T05:03:25.307Z,86.92
2023-12-08T05:05:52.024Z,87.23
2023-12-08T05:08:18.498Z,86.94
2023-12-08T05:10:45.007Z,87.27
2023-12-08T05:13:12.446Z,86.87
2023-12-08T05:15:38.995Z,87.82
2023-12-08T05:18:05.768Z,87.71
2023-12-08T05:20:32.411Z,87.93
2023-12-08T05:22:58.800Z,88.27
2023-12-08T05:25:25.231Z,87.27
2023-12-08T05:27:51.753Z,87.47
2023-12-08T05:30:18.206Z,87.33
2023-12-08T05:32:45.159Z,87.69
2023-12-08T05:35:11.731Z,88.06
2023-12-08T05:37:38.232Z,88.36
2023-12-08T05:40:05.294Z,88.01
2023-12-08T05:42:31.760Z,88.75
2023-12-08T05:44:58.296Z,88.20
2023-12-08T05:47:25.110Z,87.93
2023-12-08T05:49:51.709Z,88.64
2023-12-08T05:52:18.109Z,88.33
2023-12-08T05:54:44.607Z,88.83
2023-12-08T05:57:11.109Z,88.58
2023-12-08T05:59:37.603Z,88.81
2023-12-08T06:02:04.257Z,88.89
2023-12-08T06:04:30.644Z,88.92
2023-12-08T06:06:57.118Z,88.84
2023-12-08T06:09:24.636Z,88.78
2023-12-08T06:11:51.618Z,88.54
2023-12-08T06:14:18.127Z,88.96
2023-12-08T06:16:44.817Z,88.88
2023-12-08T06:19:11.538Z,88.71
2023-12-08T06:21:38.054Z,88.94
2023-12-08T06:24:04.839Z,89.32
2023-12-08T06:26:31.518Z,89.20
2023-12-08T06:28:58.161Z,89.45
2023-12-08T06:31:24.549Z,89.03
2023-12-08T06:34:04.821Z,89.45
2023-12-08T06:36:37.378Z,89.73
2023-12-08T06:39:06.347Z,89.62
2023-12-08T06:41:33.259Z,89.96
2023-12-08T06:43:59.691Z,90.16
2023-12-08T06:46:26.089Z,90.35
2023-12-08T06:48:52.676Z,90.05
2023-12-08T06:51:19.253Z,90.15
2023-12-08T06:53:45.676Z,90.58
2023-12-08T06:56:12.488Z,90.66
2023-12-08T06:58:38.940Z,90.30
2023-12-08T07:01:05.849Z,90.11
2023-12-08T07:03:32.322Z,90.91
2023-12-08T07:05:58.836Z,90.88
2023-12-08T07:08:25.268Z,91.06
2023-12-08T07:10:52.060Z,91.08
2023-12-08T07:13:18.547Z,90.92
2023-12-08T07:15:44.942Z,91.63
2023-12-08T07:18:11.506Z,91.07
2023-12-08T07:20:38.477Z,91.09
2023-12-08T07:23:04.947Z,90.91
2023-12-08T07:25:33.060Z,90.60
2023-12-08T07:27:59.557Z,90.85
2023-12-08T07:30:26.023Z,90.71
2023-12-08T07:32:52.825Z,90.74
2023-12-08T07:35:20.078Z,90.96
2023-12-08T07:37:46.663Z,90.90
2023-12-08T07:40:14.693Z,90.32
2023-12-08T07:42:42.977Z,90.80
2023-12-08T07:45:10.199Z,90.64
2023-12-08T07:47:39.027Z,90.71
2023-12-08T07:50:07.012Z,90.61
2023-12-08T07:52:33.762Z,90.41
2023-12-08T07:55:00.279Z,90.89
2023-12-08T07:57:26.988Z,90.41
2023-12-08T07:59:54.787Z,91.02
2023-12-08T08:02:21.540Z,90.09
2023-12-08T08:04:47.944Z,90.38
2023-12-08T08:07:14.383Z,90.44
2023-12-08T08:09:40.806Z,89.94
2023-12-08T08:12:07.980Z,90.23
2023-12-08T08:14:34.492Z,90.29
2023-12-08T08:17:00.910Z,89.99
2023-12-08T08:19:27.317Z,90.10
2023-12-08T08:22:27.450Z,89.88
2023-12-08T08:24:40.177Z,90.33
2023-12-08T08:27:06.714Z,90.07
2023-12-08T08:29:33.810Z,89.80
2023-12-08T08:32:00.261Z,90.15
2023-12-08T08:34:26.770Z,89.89
2023-12-08T08:36:53.241Z,90.01
2023-12-08T08:39:19.747Z,89.48
2023-12-08T08:41:46.224Z,90.29
2023-12-08T08:44:12.667Z,90.08
2023-12-08T08:46:41.260Z,90.50
2023-12-08T08:49:08.111Z,90.19
2023-12-08T08:51:39.246Z,90.46
2023-12-08T08:54:05.686Z,89.90
2023-12-08T08:56:32.676Z,90.01
2023-12-08T08:58:59.180Z,89.33
2023-12-08T09:01:25.571Z,89.50
2023-12-08T09:03:52.366Z,89.92
2023-12-08T09:06:19.150Z,89.81
2023-12-08T09:08:45.753Z,89.93
2023-12-08T09:11:13.053Z,90.08
2023-12-08T09:13:39.616Z,90.32
2023-12-08T09:16:06.113Z,90.38
2023-12-08T09:18:33.313Z,89.86
2023-12-08T09:20:59.873Z,90.28
2023-12-08T09:23:26.932Z,89.40
2023-12-08T09:25:54.769Z,90.00
2023-12-08T09:28:22.088Z,90.45
2023-12-08T09:30:48.487Z,90.03
2023-12-08T09:33:15.604Z,90.09
2023-12-08T09:35:42.445Z,89.67
2023-12-08T09:38:12.515Z,89.61
2023-12-08T09:40:44.509Z,89.78
2023-12-08T09:43:16.263Z,89.53
2023-12-08T09:45:45.277Z,90.06
2023-12-08T09:48:13.596Z,89.18
2023-12-08T09:50:41.840Z,89.16
2023-12-08T09:53:09.275Z,89.35
2023-12-08T09:55:39.043Z,89.58
2023-12-08T09:58:06.046Z,89.09
2023-12-08T10:00:33.654Z,89.20
2023-12-08T10:03:01.499Z,89.48
2023-12-08T10:05:29.046Z,88.90
2023-12-08T10:07:55.990Z,89.35
2023-12-08T10:10:25.289Z,89.32
2023-12-08T10:12:51.794Z,89.12
2023-12-08T10:15:18.598Z,89.68
2023-12-08T10:17:50.676Z,89.44
2023-12-08T10:20:18.767Z,88.58
2023-12-08T10:22:47.457Z,88.85
2023-12-08T10:25:17.223Z,89.48
2023-12-08T10:27:46.542Z,89.56
2023-12-08T10:30:13.966Z,88.65
2023-12-08T10:32:40.512Z,89.08
2023-12-08T10:35:07.456Z,89.53
2023-12-08T10:37:34.039Z,89.61
2023-12-08T10:40:01.117Z,89.22
2023-12-08T10:42:27.773Z,89.37
2023-12-08T10:44:54.401Z,89.19
2023-12-08T10:47:22.014Z,89.17
2023-12-08T10:49:50.315Z,88.87
2023-12-08T10:52:17.590Z,89.12
2023-12-08T10:54:43.973Z,88.83
2023-12-08T10:57:10.460Z,89.02
2023-12-08T10:59:41.794Z,88.96
2023-12-08T11:02:21.330Z,89.54
2023-12-08T11:04:55.310Z,89.16
2023-12-08T11:07:32.429Z,89.46
2023-12-08T11:10:04.099Z,89.50
2023-12-08T11:12:35.100Z,89.62
2023-12-08T11:15:10.566Z,89.95
2023-12-08T11:17:53.858Z,90.48
2023-12-08T11:20:21.452Z,90.78
2023-12-08T11:22:48.335Z,90.75
2023-12-08T11:25:22.578Z,91.13
2023-12-08T11:28:13.430Z,91.35
2023-12-08T11:30:55.524Z,91.55
2023-12-08T11:33:55.657Z,92.23
2023-12-08T11:36:22.326Z,92.15
2023-12-08T11:38:49.011Z,92.75
2023-12-08T11:41:17.121Z,92.96
2023-12-08T11:43:45.851Z,93.02
2023-12-08T11:46:14.889Z,92.86
2023-12-08T11:48:43.623Z,93.57
2023-12-08T11:51:12.006Z,93.97
2023-12-08T11:54:08.059Z,94.05
2023-12-08T11:56:39.829Z,93.64
2023-12-08T11:59:06.520Z,94.38
2023-12-08T12:01:32.997Z,94.57
2023-12-08T12:04:00.574Z,94.49
2023-12-08T12:06:30.484Z,94.30
2023-12-08T12:09:00.580Z,94.57
2023-12-08T12:11:36.423Z,94.24
2023-12-08T12:14:05.939Z,94.46
2023-12-08T12:16:32.356Z,94.58
2023-12-08T12:18:58.912Z,94.89
2023-12-08T12:21:25.489Z,94.59
2023-12-08T12:23:51.901Z,94.49
2023-12-08T12:26:21.840Z,95.23
2023-12-08T12:28:49.312Z,95.16
2023-12-08T12:31:16.830Z,95.29
2023-12-08T12:33:49.891Z,95.48
2023-12-08T12:36:17.097Z,95.14
2023-12-08T12:38:43.922Z,95.70
2023-12-08T12:41:21.381Z,95.22
2023-12-08T12:43:47.869Z,95.80
2023-12-08T12:46:14.373Z,95.40
2023-12-08T12:48:41.043Z,95.31
2023-12-08T12:51:08.761Z,95.35
2023-12-08T12:53:46.868Z,95.65
2023-12-08T12:56:13.594Z,95.57
2023-12-08T12:58:40.847Z,95.60
2023-12-08T13:01:12.641Z,95.73
2023-12-08T13:03:46.957Z,95.74
2023-12-08T13:06:13.728Z,95.80
2023-12-08T13:08:47.405Z,95.20
2023-12-08T13:11:13.823Z,95.68
2023-12-08T13:13:40.252Z,95.43
2023-12-08T13:16:08.213Z,95.39
2023-12-08T13:18:35.063Z,95.44
2023-12-08T13:21:01.657Z,95.75
2023-12-08T13:23:28.266Z,95.67
2023-12-08T13:25:54.780Z,95.77
2023-12-08T13:28:21.156Z,95.65
2023-12-08T13:30:47.779Z,95.76
2023-12-08T13:33:14.285Z,95.57
2023-12-08T13:35:40.766Z,95.56
2023-12-08T13:38:07.339Z,95.82
2023-12-08T13:40:33.777Z,95.67
2023-12-08T13:43:00.236Z,95.73
2023-12-08T13:45:26.764Z,95.93
2023-12-08T13:47:53.369Z,95.75
2023-12-08T13:50:20.244Z,95.57
2023-12-08T13:52:46.684Z,95.55
2023-12-08T13:55:13.152Z,95.66
2023-12-08T13:57:41.267Z,95.83
2023-12-08T14:00:08.539Z,95.78
2023-12-08T14:02:35.058Z,95.57
2023-12-08T14:05:01.519Z,95.31
2023-12-08T14:07:28.280Z,95.16
2023-12-08T14:09:55.064Z,95.43
2023-12-08T14:12:21.746Z,95.28
2023-12-08T14:14:48.460Z,95.25
2023-12-08T14:17:16.482Z,95.20
2023-12-08T14:19:43.263Z,95.41
2023-12-08T14:22:09.994Z,95.49
2023-12-08T14:24:36.401Z,95.47
2023-12-08T14:27:02.817Z,95.59
2023-12-08T14:29:30.016Z,95.55
2023-12-08T14:31:56.627Z,95.35
2023-12-08T14:34:23.225Z,95.55
2023-12-08T14:36:50.288Z,95.58
2023-12-08T14:39:18.650Z,95.14
2023-12-08T14:41:45.360Z,95.24
2023-12-08T14:44:11.814Z,95.71
2023-12-08T14:46:38.215Z,95.12
2023-12-08T14:49:05.999Z,95.23
2023-12-08T14:51:32.783Z,94.92
2023-12-08T14:53:59.318Z,95.34
2023-12-08T14:56:27.031Z,95.39
2023-12-08T14:58:53.609Z,95.22
2023-12-08T15:01:22.178Z,95.00
2023-12-08T15:03:48.803Z,95.33
2023-12-08T15:06:15.426Z,95.43
2023-12-08T15:08:42.264Z,95.41
2023-12-08T15:11:10.164Z,95.62
2023-12-08T15:13:36.652Z,95.54
2023-12-08T15:16:03.373Z,95.01
2023-12-08T15:18:30.073Z,95.07
2023-12-08T15:20:56.852Z,95.04
2023-12-08T15:23:24.963Z,94.85
2023-12-08T15:25:53.860Z,95.12
2023-12-08T15:28:20.347Z,95.20
2023-12-08T15:30:47.130Z,95.09
2023-12-08T15:33:13.762Z,94.80
2023-12-08T15:35:40.350Z,95.14
2023-12-08T15:38:07.491Z,95.09
2023-12-08T15:40:36.733Z,95.56
2023-12-08T15:43:04.018Z,95.50
2023-12-08T15:45:30.551Z,95.55
2023-12-08T15:47:57.246Z,95.35
2023-12-08T15:50:23.748Z,95.64
2023-12-08T15:52:50.274Z,95.50
2023-12-08T15:55:16.686Z,95.58
2023-12-08T15:57:43.872Z,95.71
2023-12-08T16:00:10.612Z,95.38
2023-12-08T16:02:40.270Z,95.47
2023-12-08T16:05:07.007Z,95.64
2023-12-08T16:07:33.461Z,95.88
2023-12-08T16:09:59.932Z,95.76
2023-12-08T16:12:27.018Z,95.80
2023-12-08T16:14:53.785Z,95.84
2023-12-08T16:17:21.379Z,96.29
2023-12-08T16:19:47.896Z,96.03
2023-12-08T16:22:14.482Z,95.76
2023-12-08T16:24:43.786Z,96.23
2023-12-08T16:27:10.390Z,95.88
2023-12-08T16:29:36.914Z,96.11
2023-12-08T16:32:03.548Z,95.81
2023-12-08T16:34:29.971Z,95.91
2023-12-08T16:36:56.988Z,96.12
2023-12-08T16:39:24.261Z,95.93
2023-12-08T16:41:51.255Z,96.11
2023-12-08T16:44:17.757Z,95.92
2023-12-08T16:46:44.587Z,96.17
2023-12-08T16:49:11.513Z,96.07
2023-12-08T16:51:38.174Z,96.25
2023-12-08T16:54:04.974Z,95.78
2023-12-08T16:56:31.692Z,95.84
2023-12-08T16:58:58.128Z,96.30
2023-12-08T17:01:25.113Z,95.77
2023-12-08T17:03:51.725Z,96.22
2023-12-08T17:06:18.878Z,96.05
2023-12-08T17:08:45.700Z,95.54
2023-12-08T17:11:12.128Z,95.57
2023-12-08T17:13:38.691Z,96.32
2023-12-08T17:16:09.085Z,96.11
2023-12-08T17:18:35.690Z,95.78
2023-12-08T17:21:02.313Z,96.20
2023-12-08T17:23:28.912Z,96.09
2023-12-08T17:25:55.625Z,95.79
2023-12-08T17:28:22.147Z,95.78
2023-12-08T17:30:48.662Z,95.62
2023-12-08T17:33:15.977Z,96.07
2023-12-08T17:35:44.049Z,95.65
2023-12-08T17:38:16.699Z,95.97
2023-12-08T17:40:44.374Z,95.85
2023-12-08T17:43:11.897Z,96.06
2023-12-08T17:45:39.046Z,96.06
2023-12-08T17:48:08.763Z,96.76
2023-12-08T17:50:35.369Z,96.13
2023-12-08T17:53:01.804Z,95.98
2023-12-08T17:55:28.341Z,95.62
2023-12-08T17:57:54.939Z,96.09
2023-12-08T18:00:21.534Z,96.38
2023-12-08T18:02:52.167Z,95.83
2023-12-08T18:05:18.937Z,95.61
2023-12-08T18:07:45.381Z,95.80
2023-12-08T18:10:11.929Z,95.96
2023-12-08T18:12:39.146Z,95.94
2023-12-08T18:15:06.355Z,95.90
2023-12-08T18:17:32.880Z,96.02
2023-12-08T18:20:00.999Z,95.63
2023-12-08T18:22:29.056Z,96.29
2023-12-08T18:24:56.002Z,96.40
2023-12-08T18:27:34.168Z,95.87
2023-12-08T18:30:09.299Z,96.26
2023-12-08T18:32:35.831Z,96.08
2023-12-08T18:35:02.278Z,95.60
2023-12-08T18:37:28.764Z,95.73
2023-12-08T18:39:56.276Z,95.86
2023-12-08T18:42:23.202Z,96.13
2023-12-08T18:44:49.749Z,96.10
2023-12-08T18:47:17.487Z,96.15
2023-12-08T18:49:43.996Z,96.31
2023-12-08T18:52:10.443Z,95.78
2023-12-08T18:54:37.026Z,95.99
2023-12-08T18:57:03.854Z,96.25
2023-12-08T18:59:30.362Z,95.97
2023-12-08T19:01:56.754Z,96.02
2023-12-08T19:04:23.124Z,96.23
2023-12-08T19:06:49.556Z,96.04
2023-12-08T19:09:16.192Z,96.05
2023-12-08T19:11:42.623Z,95.93
2023-12-08T19:14:09.114Z,96.28
2023-12-08T19:16:35.841Z,95.98
2023-12-08T19:19:03.563Z,95.99
2023-12-08T19:21:30.051Z,96.08
2023-12-08T19:23:56.463Z,96.31
2023-12-08T19:26:22.882Z,96.12
2023-12-08T19:28:49.261Z,96.33
2023-12-08T19:31:15.859Z,96.36
2023-12-08T19:33:43.059Z,96.55
2023-12-08T19:36:10.210Z,96.07
2023-12-08T19:38:36.729Z,96.33
2023-12-08T19:41:03.778Z,96.37
2023-12-08T19:43:30.325Z,95.89
2023-12-08T19:45:58.316Z,96.24
2023-12-08T19:48:24.768Z,96.30
2023-12-08T19:50:51.235Z,96.45
2023-12-08T19:53:19.045Z,96.49
2023-12-08T19:55:45.429Z,95.95
2023-12-08T19:58:12.096Z,96.35
2023-12-08T20:00:38.553Z,96.27
2023-12-08T20:03:06.405Z,96.54
2023-12-08T20:05:33.027Z,96.52
2023-12-08T20:07:59.562Z,96.24
2023-12-08T20:10:25.932Z,96.94
2023-12-08T20:12:52.392Z,96.70
2023-12-08T20:15:27.484Z,96.40
2023-12-08T20:17:55.069Z,96.44
2023-12-08T20:20:21.625Z,96.52
2023-12-08T20:22:48.072Z,96.83
2023-12-08T20:25:18.031Z,96.43
2023-12-08T20:27:46.954Z,96.67
2023-12-08T20:30:15.609Z,96.53
2023-12-08T20:32:42.113Z,96.80
2023-12-08T20:35:09.069Z,96.59
2023-12-08T20:37:35.505Z,96.87
2023-12-08T20:40:01.986Z,96.53
2023-12-08T20:42:30.594Z,96.79
2023-12-08T20:44:57.116Z,96.43
2023-12-08T20:47:23.654Z,96.61
2023-12-08T20:49:50.154Z,95.96
2023-12-08T20:52:16.595Z,96.63
2023-12-08T20:54:42.993Z,96.15
2023-12-08T20:57:09.443Z,96.50
2023-12-08T20:59:35.863Z,96.44
2023-12-08T21:02:02.787Z,96.57
2023-12-08T21:04:29.237Z,96.50
2023-12-08T21:06:57.397Z,96.58
2023-12-08T21:09:24.166Z,96.62
2023-12-08T21:11:50.678Z,96.70
2023-12-08T21:14:17.287Z,96.73
2023-12-08T21:16:43.657Z,96.79
2023-12-08T21:19:10.260Z,97.01
2023-12-08T21:21:37.467Z,96.63
2023-12-08T21:24:04.041Z,96.52
2023-12-08T21:26:30.617Z,96.61
2023-12-08T21:28:57.001Z,96.76
2023-12-08T21:31:23.841Z,96.49
2023-12-08T21:33:50.783Z,96.80
2023-12-08T21:36:17.477Z,96.45
2023-12-08T21:38:43.977Z,96.94
2023-12-08T21:41:10.431Z,96.45
2023-12-08T21:43:36.881Z,96.14
2023-12-08T21:46:03.493Z,96.13
2023-12-08T21:48:30.002Z,96.67
2023-12-08T21:50:56.561Z,96.64
2023-12-08T21:53:22.977Z,96.44
2023-12-08T21:55:49.417Z,96.74
2023-12-08T21:58:17.201Z,96.52
2023-12-08T22:00:44.668Z,96.83
2023-12-08T22:03:11.113Z,96.67
2023-12-08T22:05:37.792Z,96.96
2023-12-08T22:08:04.530Z,96.72
2023-12-08T22:10:31.024Z,96.61
2023-12-08T22:12:57.435Z,96.86
2023-12-08T22:15:23.889Z,97.08
2023-12-08T22:17:50.440Z,96.70
2023-12-08T22:20:17.400Z,97.00
2023-12-08T22:22:43.794Z,96.93
2023-12-08T22:25:11.290Z,96.76
2023-12-08T22:27:37.835Z,96.78
2023-12-08T22:30:05.989Z,97.24
2023-12-08T22:32:32.974Z,96.70
2023-12-08T22:34:59.448Z,96.46
2023-12-08T22:37:27.283Z,96.70
2023-12-08T22:39:54.166Z,96.75
2023-12-08T22:42:20.612Z,97.08
2023-12-08T22:44:47.043Z,96.80
2023-12-08T22:47:13.504Z,96.66
2023-12-08T22:49:40.369Z,97.01
2023-12-08T22:52:07.067Z,96.45
2023-12-08T22:54:33.635Z,96.60
2023-12-08T22:57:00.442Z,97.24
2023-12-08T22:59:26.895Z,96.81
2023-12-08T23:01:53.362Z,96.96
2023-12-08T23:04:19.880Z,97.33
2023-12-08T23:06:46.610Z,97.26
2023-12-08T23:09:13.097Z,97.29
2023-12-08T23:11:39.739Z,96.70
2023-12-08T23:14:06.182Z,96.86
2023-12-08T23:16:32.735Z,96.55
2023-12-08T23:18:59.355Z,97.07
2023-12-08T23:21:27.082Z,96.98
2023-12-08T23:23:53.649Z,96.60
2023-12-08T23:26:20.133Z,97.01
2023-12-08T23:28:46.822Z,96.97
2023-12-08T23:31:13.328Z,97.07
2023-12-08T23:33:40.178Z,97.21
2023-12-08T23:36:08.880Z,96.63
2023-12-08T23:38:35.765Z,96.85
2023-12-08T23:41:02.205Z,97.08
2023-12-08T23:43:28.621Z,96.73
2023-12-08T23:45:55.045Z,96.95
2023-12-08T23:48:21.986Z,97.18
2023-12-08T23:50:48.510Z,96.76
2023-12-08T23:53:15.890Z,97.40
2023-12-08T23:55:42.378Z,96.77
2023-12-08T23:58:08.763Z,96.85
